06/04/05 - 23h:29mDenunciar

Snecma Atar 9C

Imagem frontal da turbina Atar 09C utilizada pelos Mirage III e fabricada pela Snecma. É possível ver as pás do fan do primeiro estágio do compressor. Este modelo de turbojato fornece 13.700 libras (6,2 toneladas) de empuxo em regime de pós-combustão, levando o Mirage III à velocidades de até Mach 2.2 (aprox. 2.350 km/h). Imagem de GoatWorks.





METAR SBPB 070200Z 15003KT 9999 FEW017 SCT300 25/25 Q1011=

Comentários (0)

Fotos postadas a mais de 15 dias não podem receber comentários.